Latest Weather Observations for Swanbourne

IDW60801

Issued at 6:33 am WST Thursday 21 October 2021 (issued every 10 minutes, with the page automatically refreshed every 10 minutes)

About weather observations | Map of weather stations | Latest weather observations for WA | Other Formats
Station Details ID: 009215 Name: SWANBOURNE Lat: -31.96 Lon: 115.76 Height: 40.96 m
Data from the previous 72 hours. | See also: Recent months at Swanbourne
Date/Time
WST
Temp
°C
App
Temp
°C
Dew
Point
°C
Rel
Hum
%
Delta-T
°C
Wind Press
QNH
hPa
Press
MSL
hPa
Rain since
9am
mm
Dir  Spd
km/h
Gust
km/h
Spd
kts
Gust
kts
21/06:30am 16.2 12.6 11.8 75 2.4 W 22 37 12 20 - - 2.4
21/06:00am 16.4 12.6 11.3 72 2.8 W 22 32 12 17 - - 2.4
21/05:30am 15.9 12.5 11.3 74 2.5 W 20 32 11 17 - - 2.4
21/05:00am 15.8 11.9 10.8 72 2.7 W 22 30 12 16 - - 2.4
21/04:30am 15.9 11.4 10.2 69 3.0 W 24 33 13 18 - - 2.4
21/04:00am 15.9 11.3 9.8 67 3.2 W 24 33 13 18 - - 2.4
21/03:30am 15.8 11.4 10.3 70 2.9 W 24 33 13 18 - - 2.4
21/03:00am 15.9 11.2 10.7 71 2.8 W 26 39 14 21 - - 2.4
21/02:30am 16.0 11.1 10.1 68 3.1 W 26 37 14 20 - - 2.4
21/02:00am 16.0 10.4 10.1 68 3.1 W 30 39 16 21 - - 2.4
21/01:30am 16.3 11.7 11.0 71 2.8 W 26 37 14 20 - - 2.4
21/01:00am 16.2 11.6 10.9 71 2.8 W 26 37 14 20 - - 2.4
21/12:30am 16.2 11.6 11.2 72 2.7 W 26 37 14 20 - - 2.4
21/12:00am 16.4 11.3 11.8 74 2.5 WSW 30 41 16 22 - - 2.4
 
Date/Time
WST
Temp
°C
App
Temp
°C
Dew
Point
°C
Rel
Hum
%
Delta-T
°C
Wind Press
QNH
hPa
Press
MSL
hPa
Rain since
9am
mm
Dir  Spd
km/h
Gust
km/h
Spd
kts
Gust
kts
20/11:30pm 15.3 12.2 13.5 89 1.0 W 22 32 12 17 - - 2.4
20/11:12pm 16.2 11.9 13.1 82 1.7 W 28 46 15 25 - - 2.2
20/11:00pm 16.5 12.4 13.8 84 1.5 W 28 35 15 19 - - 2.2
20/10:30pm 16.0 12.5 13.3 84 1.5 W 24 39 13 21 - - 2.2
20/10:00pm 16.6 13.0 12.9 79 2.1 W 24 46 13 25 - - 2.0
20/09:30pm 17.1 13.2 13.4 79 2.1 W 26 35 14 19 - - 2.0
20/09:00pm 17.1 14.1 14.7 86 1.4 W 24 35 13 19 - - 2.0
20/08:30pm 16.5 13.3 14.3 87 1.3 W 24 32 13 17 - - 2.0
20/08:00pm 16.3 12.7 14.1 87 1.3 W 26 37 14 20 - - 2.0
20/07:30pm 15.5 10.7 14.0 91 0.8 W 32 48 17 26 - - 2.0
20/07:24pm 16.0 12.3 14.9 93 0.6 W 28 48 15 26 - - 2.0
20/07:00pm 15.3 11.0 14.5 95 0.5 WSW 30 41 16 22 - - 2.0
20/06:30pm 16.3 11.5 14.7 90 0.9 WSW 33 48 18 26 - - 1.6
20/06:00pm 17.8 12.7 14.7 82 1.8 WNW 35 46 19 25 - - 1.2
20/05:30pm 17.9 12.2 14.2 79 2.1 WNW 37 50 20 27 - - 1.2
20/05:00pm 18.1 13.6 15.0 82 1.8 NW 32 43 17 23 - - 1.2
20/04:30pm 18.0 14.1 15.6 86 1.4 NW 30 43 16 23 - - 1.2
20/04:00pm 18.0 12.7 14.1 78 2.2 WNW 35 50 19 27 - - 1.2
20/03:30pm 17.6 13.4 15.8 89 1.1 WNW 32 43 17 23 - - 1.2
20/03:00pm 16.2 11.6 15.1 93 0.6 WNW 33 48 18 26 - - 1.2
20/02:30pm 17.3 12.0 14.2 82 1.8 NW 35 61 19 33 - - 0.0
20/02:27pm 18.7 13.7 14.0 74 2.7 NW 33 61 18 33 - - 0.0
20/02:00pm 18.3 13.3 14.0 76 2.5 NW 33 48 18 26 - - 0.0
20/01:32pm 17.5 12.3 13.4 77 2.3 WNW 33 52 18 28 - - 0.0
20/01:30pm 17.3 11.7 13.4 78 2.2 NW 35 52 19 28 - - 0.0
20/01:00pm 18.9 13.7 13.5 71 3.1 WNW 33 46 18 25 - - 0.0
20/12:30pm 18.8 13.3 13.6 72 3.0 WNW 35 48 19 26 - - 0.0
20/12:00pm 18.2 14.5 13.9 76 2.5 NW 26 37 14 20 - - 0.0
20/11:30am 17.9 13.1 13.0 73 2.8 WNW 30 43 16 23 - - 0.0
20/11:00am 16.8 11.8 13.3 80 2.0 WNW 32 46 17 25 - - 0.0
20/10:30am 18.6 13.0 12.1 66 3.6 WNW 33 46 18 25 - - 0.0
20/10:00am 17.2 11.6 11.5 69 3.1 WNW 32 52 17 28 - - 0.0
20/09:59am 17.1 11.8 11.4 69 3.1 WNW 30 52 16 28 - - 0.0
20/09:30am 17.3 12.6 12.0 71 2.9 WNW 28 41 15 22 - - 0.0
20/09:03am 17.3 11.7 11.6 69 3.1 WNW 32 50 17 27 - - 0.0
20/09:00am 17.3 11.8 11.8 70 3.0 WNW 32 46 17 25 - - 17.0
20/08:30am 17.2 11.3 10.3 64 3.7 WNW 32 43 17 23 - - 17.0
20/08:00am 17.0 10.4 9.9 63 3.7 WNW 35 50 19 27 - - 17.0
20/07:30am 16.6 10.4 9.5 63 3.7 W 32 48 17 26 - - 17.0
20/07:00am 16.1 9.7 10.8 71 2.8 WNW 35 46 19 25 - - 17.0
20/06:30am 15.7 10.3 10.9 73 2.6 WNW 30 44 16 24 - - 17.0
20/06:00am 15.5 8.5 11.1 75 2.4 WNW 39 54 21 29 - - 17.0
20/05:30am 14.8 8.3 11.6 81 1.7 WNW 37 57 20 31 - - 17.0
20/05:00am 14.9 7.5 11.3 79 1.9 WNW 41 61 22 33 - - 17.0
20/04:30am 14.5 7.3 10.5 77 2.1 W 39 57 21 31 - - 17.0
20/04:00am 14.9 7.9 11.1 78 2.0 W 39 59 21 32 - - 17.0
20/03:46am 16.2 9.1 9.4 64 3.5 W 37 65 20 35 - - 16.8
20/03:30am 15.7 8.7 8.4 62 3.7 W 35 52 19 28 - - 16.8
20/03:00am 15.6 8.0 10.4 71 2.7 W 41 61 22 33 - - 16.8
20/02:57am 15.9 8.3 10.4 70 2.9 W 41 61 22 33 - - 16.8
20/02:30am 15.9 9.7 11.3 74 2.5 W 35 48 19 26 - - 16.8
20/02:00am 15.3 8.7 11.3 77 2.1 W 37 56 20 30 - - 16.8
20/01:54am 15.3 8.8 11.7 79 1.9 W 37 56 20 30 - - 16.8
20/01:30am 15.0 8.1 12.9 87 1.2 W 41 56 22 30 - - 16.8
20/01:03am 15.8 10.3 12.4 80 1.9 W 33 52 18 28 - - 16.4
20/01:00am 15.8 9.8 12.2 79 2.0 W 35 52 19 28 - - 16.4
20/12:38am 16.1 9.2 11.7 75 2.4 W 39 57 21 31 - - 16.4
20/12:30am 15.9 8.1 11.1 73 2.6 W 43 59 23 32 - - 16.4
20/12:00am 15.8 8.7 12.2 79 2.0 W 41 61 22 33 - - 16.4
 
Date/Time
WST
Temp
°C
App
Temp
°C
Dew
Point
°C
Rel
Hum
%
Delta-T
°C
Wind Press
QNH
hPa
Press
MSL
hPa
Rain since
9am
mm
Dir  Spd
km/h
Gust
km/h
Spd
kts
Gust
kts
19/11:30pm 14.9 7.1 13.1 89 1.0 W 46 74 25 40 - - 16.4
19/11:02pm 16.1 8.2 12.8 81 1.8 W 46 65 25 35 - - 16.0
19/11:00pm 16.1 7.9 12.8 81 1.8 W 48 65 26 35 - - 16.0
19/10:31pm 16.7 9.3 12.5 76 2.3 WSW 43 61 23 33 - - 16.0
19/10:30pm 16.7 9.1 12.5 76 2.3 WSW 44 61 24 33 - - 16.0
19/10:00pm 16.7 9.5 13.6 82 1.8 W 44 67 24 36 - - 16.0
19/09:30pm 16.5 7.6 13.2 81 1.8 W 52 76 28 41 - - 16.0
19/09:00pm 16.2 7.6 14.0 87 1.2 W 52 70 28 38 - - 16.0
19/08:30pm 15.6 7.9 14.3 92 0.7 W 48 70 26 38 - - 15.8
19/08:16pm 16.7 9.7 14.3 86 1.4 WNW 44 78 24 42 - - 15.4
19/08:00pm 16.5 11.1 15.0 91 0.9 WNW 37 59 20 32 - - 15.4
19/07:38pm 16.3 9.8 15.0 92 0.8 NW 43 61 23 33 - - 15.2
19/07:30pm 16.3 9.8 15.0 92 0.8 NW 43 59 23 32 - - 15.2
19/07:00pm 15.7 7.9 14.2 91 0.9 NW 48 69 26 37 - - 11.4
19/06:30pm 14.9 5.4 13.6 92 0.7 NW 56 85 30 46 - - 11.4
19/06:00pm 15.4 6.5 14.3 93 0.6 NW 54 76 29 41 - - 9.2
19/05:30pm 17.3 6.8 12.2 72 2.8 NNW 59 85 32 46 - - 4.8
19/05:00pm 17.8 7.5 11.6 67 3.4 NW 57 78 31 42 - - 4.8
19/04:30pm 18.3 8.8 12.5 69 3.2 NW 54 78 29 42 - - 4.8
19/04:00pm 18.4 8.1 11.7 65 3.7 NW 57 78 31 42 - - 4.8
19/03:30pm 18.4 8.8 12.2 67 3.4 NW 54 74 29 40 - - 4.8
19/03:00pm 17.9 9.3 12.8 72 2.9 NW 50 72 27 39 - - 4.8
19/02:32pm 18.6 11.7 14.1 75 2.6 NW 43 61 23 33 - - 4.8
19/02:30pm 18.5 11.7 14.4 77 2.4 NW 43 57 23 31 - - 4.8
19/02:04pm 18.3 11.5 13.0 71 3.0 NW 41 89 22 48 - - 3.2
19/02:02pm 18.4 12.0 13.3 72 2.9 NW 39 57 21 31 - - 3.2
19/02:00pm 18.6 11.8 13.2 71 3.1 NW 41 57 22 31 - - 3.2
19/01:56pm 19.3 12.0 13.3 68 3.4 NW 44 63 24 34 - - 3.2
19/01:30pm 19.7 12.4 12.9 65 3.8 NW 43 61 23 33 - - 3.2
19/01:03pm 19.5 12.1 13.2 67 3.6 NW 44 65 24 35 - - 3.2
19/01:00pm 19.5 12.2 13.4 68 3.5 NW 44 59 24 32 - - 3.2
19/12:30pm 18.4 12.4 14.3 77 2.4 NW 39 63 21 34 - - 3.2
19/12:04pm 16.8 12.5 15.3 91 0.9 NNW 32 50 17 27 - - 3.2
19/12:00pm 17.0 13.5 15.5 91 0.9 NNW 28 46 15 25 - - 3.2
19/11:30am 15.6 11.8 14.6 94 0.6 NNW 28 41 15 22 - - 3.0
19/11:00am 16.1 11.5 14.6 91 0.9 NNE 32 65 17 35 - - 1.8
19/10:59am 16.0 11.8 14.7 92 0.7 NNE 30 65 16 35 - - 1.8
19/10:30am 16.1 13.9 14.8 92 0.7 NNE 20 30 11 16 - - 1.0
19/10:00am 16.0 12.7 14.9 93 0.6 NNE 26 46 14 25 - - 0.8
19/09:48am 16.1 12.3 14.8 92 0.7 NNE 28 54 15 29 - - 0.6
19/09:30am 16.4 14.6 15.6 95 0.5 NE 19 32 10 17 - - 0.0
19/09:00am 16.4 15.5 15.8 96 0.4 NE 15 24 8 13 - - 13.0
19/08:30am 16.3 15.3 15.5 95 0.5 N 15 22 8 12 - - 12.8
19/08:00am 16.4 14.0 15.4 94 0.6 NNW 22 32 12 17 - - 11.6
19/07:30am 16.4 13.5 15.1 92 0.8 NW 24 33 13 18 - - 10.8
19/07:00am 16.5 11.1 15.0 91 0.9 NW 37 54 20 29 - - 9.6
19/06:55am 16.5 10.3 14.9 90 0.9 WNW 41 56 22 30 - - 9.6
19/06:30am 16.4 7.3 15.3 93 0.6 NW 57 83 31 45 - - 8.6
19/06:21am 16.0 10.7 15.2 95 0.5 N 37 69 20 37 - - 8.0
19/06:19am 15.7 10.9 14.7 94 0.6 N 33 61 18 33 - - 7.8
19/06:00am 15.8 11.1 14.3 91 0.9 NNE 32 54 17 29 - - 6.2
19/05:30am 15.9 11.8 13.9 88 1.1 NNE 28 54 15 29 - - 6.2
19/05:00am 16.4 13.1 13.9 85 1.4 NNE 24 48 13 26 - - 6.2
19/04:49am 14.9 12.0 14.1 95 0.5 ENE 22 50 12 27 - - 6.2
19/04:30am 14.6 12.3 14.0 96 0.3 E 19 26 10 14 - - 6.2
19/04:00am 14.8 13.3 14.2 96 0.3 E 15 24 8 13 - - 6.2
19/03:30am 14.9 13.8 14.3 96 0.3 E 13 19 7 10 - - 6.0
19/03:00am 15.1 14.8 14.5 96 0.3 E 9 13 5 7 - - 5.2
19/02:30am 15.3 15.0 14.5 95 0.5 ENE 9 15 5 8 - - 4.0
19/02:00am 15.6 15.4 14.6 94 0.6 E 9 13 5 7 - - 2.8
19/01:30am 16.0 16.1 14.5 91 0.9 ENE 7 11 4 6 - - 1.6
19/01:00am 16.6 16.2 14.2 86 1.4 NE 9 15 5 8 - - 0.4
19/12:30am 17.4 17.2 13.7 79 2.1 NE 7 11 4 6 - - 0.0
19/12:00am 17.2 16.8 14.1 82 1.8 NE 9 13 5 7 - - 0.0
 
Date/Time
WST
Temp
°C
App
Temp
°C
Dew
Point
°C
Rel
Hum
%
Delta-T
°C
Wind Press
QNH
hPa
Press
MSL
hPa
Rain since
9am
mm
Dir  Spd
km/h
Gust
km/h
Spd
kts
Gust
kts
18/11:30pm 16.8 16.3 13.9 83 1.6 E 9 13 5 7 - - 0.0
18/11:00pm 16.8 16.6 13.5 81 1.9 ENE 7 9 4 5 - - 0.0
18/10:30pm 17.1 18.3 13.8 81 1.9 CALM 0 0 0 0 - - 0.0
18/10:00pm 17.2 18.4 13.9 81 1.9 CALM 0 0 0 0 - - 0.0
18/09:30pm 17.1 18.4 14.0 82 1.8 CALM 0 0 0 0 - - 0.0
18/09:00pm 17.4 18.8 14.3 82 1.8 CALM 0 0 0 0 - - 0.0
18/08:30pm 17.3 18.6 14.0 81 1.9 CALM 0 0 0 0 - - 0.0
18/08:00pm 17.1 18.3 13.8 81 1.9 CALM 0 0 0 0 - - 0.0
18/07:30pm 17.6 18.6 14.3 81 1.9 W 2 6 1 3 - - 0.0
18/07:00pm 17.9 18.0 14.4 80 2.0 W 7 9 4 5 - - 0.0
18/06:30pm 18.0 17.8 13.5 75 2.6 W 7 9 4 5 - - 0.0
18/06:00pm 19.2 18.6 13.4 69 3.3 WNW 9 11 5 6 - - 0.0
18/05:30pm 19.9 19.0 12.7 63 4.1 NW 9 11 5 6 - - 0.0
18/05:00pm 20.2 19.2 12.2 60 4.5 NW 9 11 5 6 - - 0.0
18/04:30pm 20.6 18.6 12.8 61 4.4 WNW 15 19 8 10 - - 0.0
18/04:00pm 21.0 19.0 12.7 59 4.7 WNW 15 19 8 10 - - 0.0
18/03:30pm 21.6 19.3 13.0 58 4.9 WNW 17 22 9 12 - - 0.0
18/03:00pm 21.8 19.1 12.9 57 5.1 WNW 19 24 10 13 - - 0.0
18/02:30pm 21.9 19.4 12.2 54 5.5 NW 17 24 9 13 - - 0.0
18/02:00pm 21.7 19.2 12.3 55 5.3 WNW 17 24 9 13 - - 0.0
18/01:30pm 21.8 19.4 12.6 56 5.2 WNW 17 22 9 12 - - 0.0
18/01:00pm 21.3 18.7 11.9 55 5.3 WNW 17 22 9 12 - - 0.0
18/12:30pm 21.1 18.4 11.7 55 5.2 WNW 17 22 9 12 - - 0.0
18/12:00pm 20.9 17.7 11.3 54 5.3 WNW 19 22 10 12 - - 0.0
18/11:30am 21.1 18.4 11.7 55 5.2 NW 17 20 9 11 - - 0.0
18/11:00am 20.2 16.9 10.9 55 5.1 NW 19 24 10 13 - - 0.0
18/10:30am 21.0 18.6 10.2 50 5.9 NNE 13 24 7 13 - - 0.0
18/10:00am 20.1 17.8 10.5 54 5.2 N 13 24 7 13 - - 0.0
18/09:30am 18.9 16.9 10.2 57 4.7 N 11 15 6 8 - - 0.0
18/09:00am 18.0 15.6 10.1 60 4.2 NE 13 19 7 10 - - 0.0
18/08:30am 17.3 14.9 11.3 68 3.3 NE 15 20 8 11 - - 0.0
18/08:00am 16.6 14.9 11.3 71 2.9 NE 11 19 6 10 - - 0.0
18/07:30am 15.4 14.1 11.4 77 2.2 NE 9 19 5 10 - - 0.0
18/07:00am 13.1 11.3 11.0 87 1.1 ENE 11 17 6 9 - - 0.0

Other formats

Comma delimited format used in spreadsheet applications
http://www.bom.gov.au/fwo/IDW60801/IDW60801.94614.axf

JavaScript Object Notation format (JSON) in row-major order
http://www.bom.gov.au/fwo/IDW60801/IDW60801.94614.json

Data quality

Most of these data are generated automatically and are frequently updated. Quality checks on data are not normally performed. It is possible for incorrect values to appear. Refer to information at About Latest Weather Observations and please check the disclaimer before using these data.